createdAt,value
2018-08-03T00:00:26.458Z,23.11
2018-08-03T00:01:26.483Z,23.17
2018-08-03T00:02:26.513Z,23.13
2018-08-03T00:03:26.535Z,23.18
2018-08-03T00:04:26.548Z,23.11
2018-08-03T00:05:26.575Z,23.14
2018-08-03T00:06:26.600Z,23.10
2018-08-03T00:07:26.626Z,23.13
2018-08-03T00:08:26.652Z,23.13
2018-08-03T00:09:26.678Z,23.11
2018-08-03T00:10:26.705Z,23.18
2018-08-03T00:11:26.732Z,23.08
2018-08-03T00:12:26.756Z,23.20
2018-08-03T00:13:26.772Z,23.16
2018-08-03T00:14:26.796Z,23.18
2018-08-03T00:15:26.822Z,23.13
2018-08-03T00:16:26.848Z,23.06
2018-08-03T00:17:26.876Z,23.14
2018-08-03T00:18:26.903Z,23.06
2018-08-03T00:19:26.927Z,23.01
2018-08-03T00:20:26.952Z,23.08
2018-08-03T00:21:26.977Z,23.08
2018-08-03T00:22:27.004Z,23.06
2018-08-03T00:23:27.017Z,23.07
2018-08-03T00:24:27.055Z,23.07
2018-08-03T00:25:27.068Z,23.02
2018-08-03T00:26:27.094Z,23.11
2018-08-03T00:27:27.120Z,22.99
2018-08-03T00:28:27.146Z,22.96
2018-08-03T00:29:27.172Z,22.89
2018-08-03T00:30:27.199Z,22.96
2018-08-03T00:31:27.223Z,22.93
2018-08-03T00:32:27.250Z,23.06
2018-08-03T00:33:27.264Z,22.96
2018-08-03T00:34:27.292Z,22.95
2018-08-03T00:35:27.316Z,22.91
2018-08-03T00:36:27.342Z,22.96
2018-08-03T00:37:27.368Z,22.91
2018-08-03T00:38:27.397Z,22.98
2018-08-03T00:39:27.420Z,22.93
2018-08-03T00:40:27.446Z,22.92
2018-08-03T00:41:27.474Z,22.91
2018-08-03T00:42:27.498Z,22.89
2018-08-03T00:43:27.511Z,22.89
2018-08-03T00:44:27.537Z,22.89
2018-08-03T00:45:27.562Z,22.89
2018-08-03T00:46:27.601Z,22.84
2018-08-03T00:47:27.614Z,22.84
2018-08-03T00:48:27.640Z,22.84
2018-08-03T00:49:27.665Z,22.92
2018-08-03T00:50:27.691Z,22.81
2018-08-03T00:51:27.718Z,22.84
2018-08-03T00:52:27.743Z,22.78
2018-08-03T00:53:27.759Z,22.80
2018-08-03T00:54:27.794Z,22.80
2018-08-03T00:55:27.810Z,22.76
2018-08-03T00:56:27.835Z,22.81
2018-08-03T00:57:27.862Z,22.81
2018-08-03T00:58:27.887Z,22.78
2018-08-03T00:59:27.913Z,22.77
2018-08-03T01:00:27.939Z,22.78
2018-08-03T01:01:27.966Z,22.74
2018-08-03T01:02:27.991Z,22.77
2018-08-03T01:03:28.004Z,22.76
2018-08-03T01:04:28.030Z,22.70
2018-08-03T01:05:28.056Z,22.67
2018-08-03T01:06:28.082Z,22.70
2018-08-03T01:07:28.107Z,22.65
2018-08-03T01:08:28.134Z,22.71
2018-08-03T01:09:28.160Z,22.68
2018-08-03T01:10:28.185Z,22.70
2018-08-03T01:11:28.225Z,22.62
2018-08-03T01:12:28.226Z,22.76
2018-08-03T01:13:28.251Z,22.67
2018-08-03T01:14:28.281Z,22.63
2018-08-03T01:15:28.307Z,22.73
2018-08-03T01:16:28.329Z,22.71
2018-08-03T01:17:28.356Z,22.62
2018-08-03T01:18:28.381Z,22.71
2018-08-03T01:19:28.410Z,22.65
2018-08-03T01:20:28.422Z,22.56
2018-08-03T01:21:28.446Z,22.56
2018-08-03T01:22:28.474Z,22.67
2018-08-03T01:23:28.510Z,22.59
2018-08-03T01:24:28.525Z,22.67
2018-08-03T01:25:28.549Z,22.61
2018-08-03T01:26:28.575Z,22.58
2018-08-03T01:27:28.601Z,22.62
2018-08-03T01:28:28.627Z,22.59
2018-08-03T01:29:28.643Z,22.62
2018-08-03T01:30:28.667Z,22.56
2018-08-03T01:31:28.695Z,22.56
2018-08-03T01:32:28.722Z,22.63
2018-08-03T01:33:28.745Z,22.62
2018-08-03T01:34:28.771Z,22.56
2018-08-03T01:35:28.797Z,22.62
2018-08-03T01:36:28.823Z,22.61
2018-08-03T01:37:28.850Z,22.59
2018-08-03T01:38:28.862Z,22.56
2018-08-03T01:39:28.901Z,22.61
2018-08-03T01:40:28.913Z,22.59
2018-08-03T01:41:28.940Z,22.58
2018-08-03T01:42:28.966Z,22.59
2018-08-03T01:43:28.991Z,22.59
2018-08-03T01:44:29.018Z,22.59
2018-08-03T01:45:29.057Z,22.55
2018-08-03T01:46:29.069Z,22.65
2018-08-03T01:47:29.085Z,22.58
2018-08-03T01:48:29.110Z,22.65
2018-08-03T01:49:29.136Z,22.58
2018-08-03T01:50:29.161Z,22.59
2018-08-03T01:51:29.190Z,22.59
2018-08-03T01:52:29.216Z,22.59
2018-08-03T01:53:29.240Z,22.68
2018-08-03T01:54:29.265Z,22.59
2018-08-03T01:55:29.279Z,22.56
2018-08-03T01:56:29.303Z,22.59
2018-08-03T01:57:29.330Z,22.58
2018-08-03T01:58:29.355Z,22.52
2018-08-03T01:59:29.389Z,22.53
2018-08-03T02:00:29.411Z,22.52
2018-08-03T02:01:29.433Z,22.62
2018-08-03T02:02:29.459Z,22.68
2018-08-03T02:03:29.478Z,22.59
2018-08-03T02:04:29.500Z,22.67
2018-08-03T02:05:29.526Z,22.70
2018-08-03T02:06:29.553Z,22.74
2018-08-03T02:07:29.578Z,22.77
2018-08-03T02:08:29.603Z,22.74
2018-08-03T02:09:29.633Z,22.77
2018-08-03T02:10:29.656Z,22.78
2018-08-03T02:11:29.685Z,22.76
2018-08-03T02:12:29.694Z,22.76
2018-08-03T02:13:29.733Z,22.76
2018-08-03T02:14:29.749Z,22.81
2018-08-03T02:15:29.772Z,22.83
2018-08-03T02:16:29.798Z,22.80
2018-08-03T02:17:29.823Z,22.80
2018-08-03T02:18:29.849Z,22.76
2018-08-03T02:19:29.875Z,22.88
2018-08-03T02:20:29.902Z,22.88
2018-08-03T02:21:29.928Z,22.88
2018-08-03T02:22:29.941Z,22.91
2018-08-03T02:23:29.968Z,22.91
2018-08-03T02:24:29.995Z,22.93
2018-08-03T02:25:30.020Z,22.95
2018-08-03T02:26:30.046Z,22.96
2018-08-03T02:27:30.072Z,22.89
2018-08-03T02:28:30.098Z,22.91
2018-08-03T02:29:30.123Z,22.92
2018-08-03T02:30:30.150Z,22.93
2018-08-03T02:31:30.164Z,22.96
2018-08-03T02:32:30.188Z,22.93
2018-08-03T02:33:30.215Z,22.89
2018-08-03T02:34:30.239Z,22.95
2018-08-03T02:35:30.267Z,22.93
2018-08-03T02:36:30.292Z,22.88
2018-08-03T02:37:30.319Z,22.98
2018-08-03T02:38:30.344Z,22.98
2018-08-03T02:39:30.380Z,22.92
2018-08-03T02:40:30.395Z,22.99
2018-08-03T02:41:30.411Z,22.96
2018-08-03T02:42:30.439Z,23.02
2018-08-03T02:43:30.462Z,22.99
2018-08-03T02:44:30.490Z,22.95
2018-08-03T02:45:30.516Z,22.95
2018-08-03T02:46:30.543Z,22.96
2018-08-03T02:47:30.565Z,22.96
2018-08-03T02:48:30.591Z,22.96
2018-08-03T02:49:30.617Z,22.98
2018-08-03T02:50:30.646Z,22.95
2018-08-03T02:51:30.669Z,22.96
2018-08-03T02:52:30.682Z,22.96
2018-08-03T02:53:30.707Z,23.10
2018-08-03T02:54:30.734Z,23.04
2018-08-03T02:55:30.759Z,23.04
2018-08-03T02:56:30.798Z,23.04
2018-08-03T02:57:30.812Z,23.13
2018-08-03T02:58:30.837Z,23.04
2018-08-03T02:59:30.863Z,23.11
2018-08-03T03:00:30.894Z,23.02
2018-08-03T03:01:30.915Z,23.04
2018-08-03T03:02:30.930Z,23.06
2018-08-03T03:03:30.955Z,23.04
2018-08-03T03:04:30.996Z,23.01
2018-08-03T03:05:31.008Z,22.99
2018-08-03T03:06:31.034Z,23.10
2018-08-03T03:07:31.070Z,22.98
2018-08-03T03:08:31.087Z,22.99
2018-08-03T03:09:31.113Z,22.98
2018-08-03T03:10:31.137Z,22.91
2018-08-03T03:11:31.163Z,23.02
2018-08-03T03:12:31.180Z,22.93
2018-08-03T03:13:31.204Z,22.92
2018-08-03T03:14:31.227Z,22.98
2018-08-03T03:15:31.258Z,22.96
2018-08-03T03:16:31.279Z,22.93
2018-08-03T03:17:31.305Z,22.96
2018-08-03T03:18:31.331Z,22.98
2018-08-03T03:19:31.395Z,22.93
2018-08-03T03:20:31.383Z,22.95
2018-08-03T03:21:31.410Z,22.86
2018-08-03T03:22:31.434Z,22.91
2018-08-03T03:23:31.450Z,22.93
2018-08-03T03:24:31.479Z,22.91
2018-08-03T03:25:31.506Z,22.84
2018-08-03T03:26:31.527Z,22.78
2018-08-03T03:27:31.553Z,22.76
2018-08-03T03:28:31.579Z,22.81
2018-08-03T03:29:31.606Z,22.80
2018-08-03T03:30:31.630Z,22.74
2018-08-03T03:31:31.657Z,22.78
2018-08-03T03:32:31.686Z,22.74
2018-08-03T03:33:31.742Z,22.74
2018-08-03T03:34:31.721Z,22.80
2018-08-03T03:35:31.746Z,22.78
2018-08-03T03:36:31.773Z,22.78
2018-08-03T03:37:31.798Z,22.83
2018-08-03T03:38:31.827Z,22.73
2018-08-03T03:39:31.869Z,22.80
2018-08-03T03:40:31.876Z,22.78
2018-08-03T03:41:31.893Z,22.83
2018-08-03T03:42:31.917Z,22.73
2018-08-03T03:43:31.943Z,22.77
2018-08-03T03:44:31.969Z,22.67
2018-08-03T03:45:32.050Z,22.76
2018-08-03T03:46:32.021Z,22.70
2018-08-03T03:47:32.047Z,22.67
2018-08-03T03:48:32.073Z,22.67
2018-08-03T03:49:32.098Z,22.67
2018-08-03T03:50:32.112Z,22.67
2018-08-03T03:51:32.137Z,22.68
2018-08-03T03:52:32.163Z,22.65
2018-08-03T03:53:32.202Z,22.63
2018-08-03T03:54:32.215Z,22.61
2018-08-03T03:55:32.254Z,22.62
2018-08-03T03:56:32.273Z,22.61
2018-08-03T03:57:32.295Z,22.63
2018-08-03T03:58:32.318Z,22.61
2018-08-03T03:59:32.334Z,22.55
2018-08-03T04:00:32.360Z,22.65
2018-08-03T04:01:32.385Z,22.62
2018-08-03T04:02:32.411Z,22.59
2018-08-03T04:03:32.437Z,22.59
2018-08-03T04:04:32.462Z,22.52
2018-08-03T04:05:32.489Z,22.56
2018-08-03T04:06:32.514Z,22.55
2018-08-03T04:07:32.541Z,22.47
2018-08-03T04:08:32.554Z,22.46
2018-08-03T04:09:32.580Z,22.51
2018-08-03T04:10:32.609Z,22.44
2018-08-03T04:11:32.631Z,22.44
2018-08-03T04:12:32.657Z,22.44
2018-08-03T04:13:32.683Z,22.41
2018-08-03T04:14:32.711Z,22.46
2018-08-03T04:15:32.735Z,22.40
2018-08-03T04:16:32.752Z,22.46
2018-08-03T04:17:32.775Z,22.43
2018-08-03T04:18:32.802Z,22.40
2018-08-03T04:19:32.827Z,22.38
2018-08-03T04:20:32.853Z,22.44
2018-08-03T04:21:32.881Z,22.43
2018-08-03T04:22:32.905Z,22.37
2018-08-03T04:23:32.931Z,22.37
2018-08-03T04:24:32.943Z,22.34
2018-08-03T04:25:33.012Z,22.33
2018-08-03T04:26:32.995Z,22.38
2018-08-03T04:27:33.021Z,22.36
2018-08-03T04:28:33.047Z,22.33
2018-08-03T04:29:33.074Z,22.31
2018-08-03T04:30:33.100Z,22.28
2018-08-03T04:31:33.124Z,22.30
2018-08-03T04:32:33.139Z,22.30
2018-08-03T04:33:33.165Z,22.33
2018-08-03T04:34:33.191Z,22.25
2018-08-03T04:35:33.217Z,22.28
2018-08-03T04:36:33.243Z,22.23
2018-08-03T04:37:33.269Z,22.25
2018-08-03T04:38:33.295Z,22.23
2018-08-03T04:39:33.310Z,22.22
2018-08-03T04:40:33.333Z,22.25
2018-08-03T04:41:33.359Z,22.28
2018-08-03T04:42:33.402Z,22.22
2018-08-03T04:43:33.411Z,22.21
2018-08-03T04:44:33.441Z,22.19
2018-08-03T04:45:33.467Z,22.16
2018-08-03T04:46:33.489Z,22.18
2018-08-03T04:47:33.503Z,22.18
2018-08-03T04:48:33.564Z,22.21
2018-08-03T04:49:33.555Z,22.14
2018-08-03T04:50:33.580Z,22.07
2018-08-03T04:51:33.607Z,22.18
2018-08-03T04:52:33.636Z,22.08
2018-08-03T04:53:33.659Z,22.10
2018-08-03T04:54:33.715Z,22.14
2018-08-03T04:55:33.697Z,22.19
2018-08-03T04:56:33.724Z,22.30
2018-08-03T04:57:33.749Z,22.23
2018-08-03T04:58:33.775Z,22.30
2018-08-03T04:59:33.804Z,22.22
2018-08-03T05:00:33.840Z,22.21
2018-08-03T05:01:33.853Z,22.23
2018-08-03T05:02:33.879Z,22.34
2018-08-03T05:03:33.895Z,22.40
2018-08-03T05:04:33.924Z,22.43
2018-08-03T05:05:33.945Z,22.41
2018-08-03T05:06:33.971Z,22.53
2018-08-03T05:07:33.997Z,22.43
2018-08-03T05:08:34.023Z,22.55
2018-08-03T05:09:34.051Z,22.44
2018-08-03T05:10:34.075Z,22.59
2018-08-03T05:11:34.101Z,22.56
2018-08-03T05:12:34.364Z,22.65
2018-08-03T05:13:34.141Z,22.65
2018-08-03T05:14:34.165Z,22.68
2018-08-03T05:15:34.273Z,22.78
2018-08-03T05:16:34.217Z,22.76
2018-08-03T05:17:34.293Z,22.77
2018-08-03T05:18:34.269Z,22.78
2018-08-03T05:19:34.296Z,22.93
2018-08-03T05:20:34.321Z,22.92
2018-08-03T05:21:34.351Z,22.96
2018-08-03T05:22:34.361Z,22.96
2018-08-03T05:23:34.389Z,22.99
2018-08-03T05:24:34.418Z,22.98
2018-08-03T05:25:34.439Z,23.04
2018-08-03T05:26:34.465Z,23.11
2018-08-03T05:27:34.493Z,23.11
2018-08-03T05:28:34.519Z,23.20
2018-08-03T05:29:34.544Z,23.14
2018-08-03T05:30:34.568Z,23.20
2018-08-03T05:31:34.595Z,23.21
2018-08-03T05:32:34.621Z,23.23
2018-08-03T05:33:34.647Z,23.29
2018-08-03T05:34:34.673Z,23.26
2018-08-03T05:35:34.717Z,23.37
2018-08-03T05:36:34.711Z,23.47
2018-08-03T05:37:34.738Z,23.48
2018-08-03T05:38:34.764Z,23.51
2018-08-03T05:39:34.789Z,23.58
2018-08-03T05:40:34.817Z,23.62
2018-08-03T05:41:34.841Z,23.64
2018-08-03T05:42:34.897Z,23.71
2018-08-03T05:43:34.896Z,23.85
2018-08-03T05:44:34.918Z,23.85
2018-08-03T05:45:35.003Z,24.01
2018-08-03T05:46:34.970Z,23.94
2018-08-03T05:47:34.996Z,24.06
2018-08-03T05:48:35.023Z,24.06
2018-08-03T05:49:35.064Z,24.10
2018-08-03T05:50:35.076Z,24.19
2018-08-03T05:51:35.101Z,24.16
2018-08-03T05:52:35.126Z,24.24
2018-08-03T05:53:35.153Z,24.22
2018-08-03T05:54:35.178Z,24.25
2018-08-03T05:55:35.204Z,24.41
2018-08-03T05:56:35.233Z,24.40
2018-08-03T05:57:35.258Z,24.41
2018-08-03T05:58:35.283Z,24.43
2018-08-03T05:59:35.308Z,24.50
2018-08-03T06:00:35.334Z,24.55
2018-08-03T06:01:35.359Z,24.56
2018-08-03T06:02:35.385Z,24.62
2018-08-03T06:03:35.414Z,24.71
2018-08-03T06:04:35.450Z,24.66
2018-08-03T06:05:35.463Z,24.68
2018-08-03T06:06:35.491Z,24.74
2018-08-03T06:07:35.515Z,24.66
2018-08-03T06:08:35.541Z,24.61
2018-08-03T06:09:35.605Z,24.84
2018-08-03T06:10:35.593Z,24.79
2018-08-03T06:11:35.620Z,24.78
2018-08-03T06:12:35.645Z,24.74
2018-08-03T06:13:35.671Z,24.77
2018-08-03T06:14:35.696Z,24.78
2018-08-03T06:15:35.722Z,24.81
2018-08-03T06:16:35.748Z,24.82
2018-08-03T06:17:35.776Z,24.79
2018-08-03T06:18:35.854Z,24.81
2018-08-03T06:19:35.840Z,24.81
2018-08-03T06:20:35.863Z,24.78
2018-08-03T06:21:35.879Z,24.82
2018-08-03T06:22:35.905Z,24.89
2018-08-03T06:23:35.932Z,24.94
2018-08-03T06:24:35.969Z,24.97
2018-08-03T06:25:35.983Z,25.04
2018-08-03T06:26:36.022Z,25.00
2018-08-03T06:27:36.048Z,25.04
2018-08-03T06:28:36.173Z,25.15
2018-08-03T06:29:36.168Z,25.19
2018-08-03T06:30:36.125Z,25.30
2018-08-03T06:31:36.152Z,25.36
2018-08-03T06:32:36.177Z,25.41
2018-08-03T06:33:36.203Z,25.46
2018-08-03T06:34:36.230Z,25.55
2018-08-03T06:35:36.254Z,25.58
2018-08-03T06:36:36.283Z,25.74
2018-08-03T06:37:36.307Z,25.81
2018-08-03T06:38:36.332Z,25.95
2018-08-03T06:39:36.359Z,26.24
2018-08-03T06:40:36.385Z,26.22
2018-08-03T06:41:36.422Z,26.37
2018-08-03T06:42:36.448Z,26.42
2018-08-03T06:43:36.474Z,26.51
2018-08-03T06:44:36.499Z,26.67
2018-08-03T06:45:36.525Z,26.78
2018-08-03T06:46:36.553Z,26.97
2018-08-03T06:47:36.591Z,27.05
2018-08-03T06:48:36.621Z,27.20
2018-08-03T06:49:36.644Z,27.34
2018-08-03T06:50:36.669Z,27.50
2018-08-03T06:51:36.707Z,27.66
2018-08-03T06:52:36.732Z,27.78
2018-08-03T06:53:36.796Z,27.86
2018-08-03T06:54:36.784Z,28.00
2018-08-03T06:55:36.826Z,28.16
2018-08-03T06:56:36.850Z,28.18
2018-08-03T06:57:36.927Z,28.35
2018-08-03T06:58:36.926Z,28.41
2018-08-03T06:59:36.943Z,28.67
2018-08-03T07:00:36.969Z,28.72
2018-08-03T07:01:37.005Z,28.82
2018-08-03T07:02:37.031Z,28.97
2018-08-03T07:03:37.056Z,29.05
2018-08-03T07:04:37.094Z,29.21
2018-08-03T07:05:37.122Z,29.28
2018-08-03T07:06:37.147Z,29.40
2018-08-03T07:07:37.185Z,29.47
2018-08-03T07:08:37.223Z,29.61
2018-08-03T07:09:37.249Z,29.62
2018-08-03T07:10:37.276Z,29.79
2018-08-03T07:11:37.301Z,29.87
2018-08-03T07:12:37.342Z,30.02
2018-08-03T07:13:37.366Z,30.18
2018-08-03T07:14:37.471Z,30.23
2018-08-03T07:15:37.435Z,30.39
2018-08-03T07:16:37.469Z,30.43
2018-08-03T07:17:37.495Z,30.67
2018-08-03T07:18:37.532Z,30.80
2018-08-03T07:19:37.559Z,30.91
2018-08-03T07:20:37.648Z,30.91
2018-08-03T07:21:37.625Z,31.10
2018-08-03T07:22:37.662Z,31.04
2018-08-03T07:23:37.688Z,31.18
2018-08-03T07:24:37.727Z,31.22
2018-08-03T07:25:37.752Z,31.36
2018-08-03T07:26:37.790Z,31.44
2018-08-03T07:27:37.817Z,31.59
2018-08-03T07:28:37.855Z,31.59
2018-08-03T07:29:37.892Z,31.50
2018-08-03T07:30:37.919Z,31.55
2018-08-03T07:31:38.013Z,31.55
2018-08-03T07:32:37.984Z,31.72
2018-08-03T07:33:38.022Z,31.74
2018-08-03T07:34:38.062Z,31.74
2018-08-03T07:35:38.088Z,31.85
2018-08-03T07:36:38.125Z,31.95
2018-08-03T07:37:38.163Z,31.92
2018-08-03T07:38:38.190Z,32.01
2018-08-03T07:39:38.228Z,32.04
2018-08-03T07:40:38.253Z,32.12
2018-08-03T07:41:38.293Z,32.17
2018-08-03T07:42:38.332Z,32.11
2018-08-03T07:43:38.369Z,32.20
2018-08-03T07:44:38.449Z,32.30
2018-08-03T07:45:38.433Z,32.19
2018-08-03T07:46:38.471Z,32.30
2018-08-03T07:47:38.498Z,32.24
2018-08-03T07:48:38.535Z,32.26
2018-08-03T07:49:38.574Z,32.26
2018-08-03T07:50:38.612Z,32.31
2018-08-03T07:51:38.639Z,32.22
2018-08-03T07:52:38.712Z,32.30
2018-08-03T07:53:38.718Z,32.27
2018-08-03T07:54:38.741Z,32.41
2018-08-03T07:55:38.780Z,32.39
2018-08-03T07:56:38.818Z,32.38
2018-08-03T07:57:38.858Z,32.45
2018-08-03T07:58:38.886Z,32.46
2018-08-03T07:59:38.922Z,32.60
2018-08-03T08:00:38.960Z,32.53
2018-08-03T08:01:38.998Z,32.71
2018-08-03T08:02:39.026Z,32.59
2018-08-03T08:03:39.063Z,32.64
2018-08-03T08:04:39.101Z,32.66
2018-08-03T08:05:39.141Z,32.61
2018-08-03T08:06:39.177Z,32.71
2018-08-03T08:07:39.218Z,32.66
2018-08-03T08:08:39.257Z,32.72
2018-08-03T08:09:39.322Z,32.72
2018-08-03T08:10:39.319Z,32.75
2018-08-03T08:11:39.357Z,32.91
2018-08-03T08:12:39.397Z,32.78
2018-08-03T08:13:39.435Z,32.85
2018-08-03T08:14:39.464Z,32.85
2018-08-03T08:15:39.530Z,32.81
2018-08-03T08:16:39.537Z,32.91
2018-08-03T08:17:39.577Z,32.97
2018-08-03T08:18:39.613Z,33.00
2018-08-03T08:19:39.652Z,32.95
2018-08-03T08:20:39.691Z,33.13
2018-08-03T08:21:39.730Z,33.16
2018-08-03T08:22:39.780Z,33.28
2018-08-03T08:23:39.794Z,33.23
2018-08-03T08:24:39.838Z,33.28
2018-08-03T08:25:39.870Z,33.15
2018-08-03T08:26:39.910Z,33.03
2018-08-03T08:27:39.948Z,33.05
2018-08-03T08:28:39.987Z,33.03
2018-08-03T08:29:40.038Z,32.79
2018-08-03T08:30:40.065Z,32.83
2018-08-03T08:31:40.139Z,32.83
2018-08-03T08:32:40.127Z,32.75
2018-08-03T08:33:40.166Z,32.61
2018-08-03T08:34:40.204Z,32.57
2018-08-03T08:35:40.243Z,32.63
2018-08-03T08:36:40.280Z,32.41
2018-08-03T08:37:40.307Z,32.45
2018-08-03T08:38:40.347Z,32.41
2018-08-03T08:39:40.387Z,32.41
2018-08-03T08:40:40.423Z,32.34
2018-08-03T08:41:40.448Z,32.20
2018-08-03T08:42:40.490Z,32.11
2018-08-03T08:43:40.590Z,31.97
2018-08-03T08:44:40.557Z,32.02
2018-08-03T08:45:40.591Z,31.98
2018-08-03T08:46:40.629Z,31.89
2018-08-03T08:47:40.656Z,31.97
2018-08-03T08:48:40.692Z,31.86
2018-08-03T08:49:40.731Z,31.87
2018-08-03T08:50:40.774Z,31.77
2018-08-03T08:51:40.795Z,31.69
2018-08-03T08:52:40.834Z,31.73
2018-08-03T08:53:40.860Z,31.64
2018-08-03T08:54:40.910Z,31.67
2018-08-03T08:55:40.937Z,31.55
2018-08-03T08:56:40.965Z,31.52
2018-08-03T08:57:41.015Z,31.51
2018-08-03T08:58:41.028Z,31.50
2018-08-03T08:59:41.084Z,31.48
2018-08-03T09:00:41.103Z,31.45
2018-08-03T09:01:41.129Z,31.41
2018-08-03T09:02:41.168Z,31.37
2018-08-03T09:03:41.207Z,31.45
2018-08-03T09:04:41.245Z,31.35
2018-08-03T09:05:41.272Z,31.36
2018-08-03T09:06:41.313Z,31.35
2018-08-03T09:07:41.406Z,31.37
2018-08-03T09:08:41.408Z,31.39
2018-08-03T09:09:41.401Z,31.30
2018-08-03T09:10:41.438Z,31.37
2018-08-03T09:11:41.465Z,31.42
2018-08-03T09:12:41.516Z,31.41
2018-08-03T09:13:41.542Z,31.36
2018-08-03T09:14:41.568Z,31.33
2018-08-03T09:15:41.607Z,31.36
2018-08-03T09:16:41.636Z,31.42
2018-08-03T09:17:41.670Z,31.44
2018-08-03T09:18:41.729Z,31.42
2018-08-03T09:19:41.743Z,31.54
2018-08-03T09:20:41.774Z,31.50
2018-08-03T09:21:41.812Z,31.54
2018-08-03T09:22:41.838Z,31.60
2018-08-03T09:23:41.879Z,31.54
2018-08-03T09:24:41.973Z,31.64
2018-08-03T09:25:41.942Z,31.70
2018-08-03T09:26:41.993Z,31.73
2018-08-03T09:27:42.018Z,31.69
2018-08-03T09:28:42.045Z,31.64
2018-08-03T09:29:42.082Z,31.72
2018-08-03T09:30:42.121Z,31.74
2018-08-03T09:31:42.148Z,31.79
2018-08-03T09:32:42.185Z,31.86
2018-08-03T09:33:42.224Z,31.93
2018-08-03T09:34:42.262Z,31.85
2018-08-03T09:35:42.287Z,31.85
2018-08-03T09:36:42.327Z,31.85
2018-08-03T09:37:42.364Z,31.73
2018-08-03T09:38:42.390Z,31.81
2018-08-03T09:39:42.429Z,31.81
2018-08-03T09:40:42.480Z,31.82
2018-08-03T09:41:42.494Z,31.93
2018-08-03T09:42:42.531Z,31.95
2018-08-03T09:43:42.570Z,32.00
2018-08-03T09:44:42.609Z,32.07
2018-08-03T09:45:42.646Z,32.11
2018-08-03T09:46:42.672Z,32.02
2018-08-03T09:47:42.712Z,32.02
2018-08-03T09:48:42.751Z,32.02
2018-08-03T09:49:42.791Z,32.08
2018-08-03T09:50:42.827Z,32.11
2018-08-03T09:51:42.853Z,32.15
2018-08-03T09:52:42.894Z,32.15
2018-08-03T09:53:42.942Z,32.20
2018-08-03T09:54:42.969Z,32.17
2018-08-03T09:55:43.007Z,32.23
2018-08-03T09:56:43.050Z,32.31
2018-08-03T09:57:43.073Z,32.34
2018-08-03T09:58:43.109Z,32.46
2018-08-03T09:59:43.149Z,32.59
2018-08-03T10:00:43.188Z,32.71
2018-08-03T10:01:43.264Z,32.76
2018-08-03T10:02:43.263Z,32.90
2018-08-03T10:03:43.302Z,33.05
2018-08-03T10:04:43.339Z,33.20
2018-08-03T10:05:43.379Z,33.28
2018-08-03T10:06:43.416Z,33.50
2018-08-03T10:07:43.459Z,33.47
2018-08-03T10:08:43.487Z,33.75
2018-08-03T10:09:43.560Z,33.84
2018-08-03T10:10:43.557Z,34.00
2018-08-03T10:11:43.596Z,34.19
2018-08-03T10:12:43.654Z,34.21
2018-08-03T10:13:43.673Z,34.35
2018-08-03T10:14:43.711Z,34.43
2018-08-03T10:15:43.763Z,34.53
2018-08-03T10:16:43.789Z,34.51
2018-08-03T10:17:43.830Z,34.59
2018-08-03T10:18:43.865Z,34.63
2018-08-03T10:19:43.904Z,34.66
2018-08-03T10:20:43.943Z,34.82
2018-08-03T10:21:43.980Z,35.08
2018-08-03T10:22:44.020Z,35.31
2018-08-03T10:23:44.073Z,35.54
2018-08-03T10:24:44.108Z,35.72
2018-08-03T10:25:44.147Z,36.05
2018-08-03T10:26:44.190Z,36.09
2018-08-03T10:27:44.225Z,36.25
2018-08-03T10:28:44.262Z,36.38
2018-08-03T10:29:44.381Z,36.48
2018-08-03T10:30:44.355Z,36.70
2018-08-03T10:31:44.390Z,36.91
2018-08-03T10:32:44.428Z,36.94
2018-08-03T10:33:44.480Z,37.10
2018-08-03T10:34:44.525Z,37.23
2018-08-03T10:35:44.557Z,37.48
2018-08-03T10:36:44.596Z,37.54
2018-08-03T10:37:44.645Z,37.72
2018-08-03T10:38:44.684Z,38.00
2018-08-03T10:39:44.723Z,38.09
2018-08-03T10:40:44.774Z,38.19
2018-08-03T10:41:44.813Z,38.46
2018-08-03T10:42:44.918Z,38.54
2018-08-03T10:43:44.901Z,38.85
2018-08-03T10:44:44.939Z,39.01
2018-08-03T10:45:44.991Z,39.05
2018-08-03T10:46:45.029Z,39.08
2018-08-03T10:47:45.068Z,39.14
2018-08-03T10:48:45.134Z,39.23
2018-08-03T10:49:45.169Z,39.29
2018-08-03T10:50:45.207Z,39.46
2018-08-03T10:51:45.247Z,39.57
2018-08-03T10:52:45.284Z,39.75
2018-08-03T10:53:45.337Z,39.83
2018-08-03T10:54:45.374Z,40.00
2018-08-03T10:55:45.426Z,40.07
2018-08-03T10:56:45.464Z,40.23
2018-08-03T10:57:45.514Z,40.08
2018-08-03T10:58:45.554Z,40.26
2018-08-03T10:59:45.592Z,40.55
2018-08-03T11:00:45.654Z,40.80
2018-08-03T11:01:45.735Z,41.04
2018-08-03T11:02:45.732Z,41.17
2018-08-03T11:03:45.770Z,41.33
2018-08-03T11:04:45.820Z,41.44
2018-08-03T11:05:45.861Z,41.57
2018-08-03T11:06:45.964Z,41.64
2018-08-03T11:07:45.953Z,41.83
2018-08-03T11:08:46.000Z,41.74
2018-08-03T11:09:46.039Z,41.96
2018-08-03T11:10:46.090Z,42.00
2018-08-03T11:11:46.127Z,42.15
2018-08-03T11:12:46.178Z,42.39
2018-08-03T11:13:46.280Z,42.47
2018-08-03T11:14:46.268Z,42.52
2018-08-03T11:15:46.307Z,42.55
2018-08-03T11:16:46.356Z,42.58
2018-08-03T11:17:46.396Z,42.70
2018-08-03T11:18:46.447Z,42.89
2018-08-03T11:19:46.489Z,43.03
2018-08-03T11:20:46.537Z,43.08
2018-08-03T11:21:46.576Z,43.11
2018-08-03T11:22:46.626Z,43.28
2018-08-03T11:23:46.677Z,43.29
2018-08-03T11:24:46.714Z,43.31
2018-08-03T11:25:46.765Z,43.34
2018-08-03T11:26:46.805Z,43.31
2018-08-03T11:27:46.856Z,43.12
2018-08-03T11:28:46.894Z,43.08
2018-08-03T11:29:46.978Z,43.08
2018-08-03T11:30:46.983Z,43.08
2018-08-03T11:31:47.034Z,43.19
2018-08-03T11:32:47.074Z,43.31
2018-08-03T11:33:47.123Z,43.35
2018-08-03T11:34:47.175Z,43.34
2018-08-03T11:35:47.219Z,43.31
2018-08-03T11:36:47.267Z,43.63
2018-08-03T11:37:47.303Z,43.72
2018-08-03T11:38:47.352Z,43.80
2018-08-03T11:39:47.395Z,43.63
2018-08-03T11:40:47.500Z,43.75
2018-08-03T11:41:47.482Z,43.76
2018-08-03T11:42:47.532Z,43.87
2018-08-03T11:43:47.582Z,43.85
2018-08-03T11:44:47.622Z,43.89
2018-08-03T11:45:47.673Z,43.94
2018-08-03T11:46:47.711Z,44.04
2018-08-03T11:47:47.762Z,44.07
2018-08-03T11:48:47.801Z,44.14
2018-08-03T11:49:47.856Z,44.26
2018-08-03T11:50:47.892Z,44.28
2018-08-03T11:51:47.940Z,44.30
2018-08-03T11:52:47.980Z,44.35
2018-08-03T11:53:48.031Z,44.44
2018-08-03T11:54:48.081Z,44.48
2018-08-03T11:55:48.121Z,44.45
2018-08-03T11:56:48.170Z,44.44
2018-08-03T11:57:48.209Z,44.44
2018-08-03T11:58:48.261Z,44.56
2018-08-03T11:59:48.310Z,44.55
2018-08-03T12:00:48.390Z,44.55
2018-08-03T12:01:48.436Z,44.56
2018-08-03T12:02:48.439Z,44.59
2018-08-03T12:03:48.489Z,44.48
2018-08-03T12:04:48.527Z,44.64
2018-08-03T12:05:48.577Z,44.62
2018-08-03T12:06:48.619Z,44.65
2018-08-03T12:07:48.669Z,44.64
2018-08-03T12:08:48.706Z,44.64
2018-08-03T12:09:48.757Z,44.72
2018-08-03T12:10:48.808Z,44.73
2018-08-03T12:11:48.849Z,44.82
2018-08-03T12:12:48.897Z,44.75
2018-08-03T12:13:48.936Z,44.86
2018-08-03T12:14:48.986Z,44.86
2018-08-03T12:15:49.028Z,44.83
2018-08-03T12:16:49.076Z,44.79
2018-08-03T12:17:49.125Z,44.62
2018-08-03T12:18:49.165Z,44.68
2018-08-03T12:19:49.218Z,44.77
2018-08-03T12:20:49.258Z,44.75
2018-08-03T12:21:49.306Z,44.87
2018-08-03T12:22:49.344Z,44.87
2018-08-03T12:23:49.422Z,44.84
2018-08-03T12:24:49.434Z,44.76
2018-08-03T12:25:49.484Z,44.73
2018-08-03T12:26:49.524Z,44.83
2018-08-03T12:27:49.586Z,44.76
2018-08-03T12:28:49.616Z,44.65
2018-08-03T12:29:49.663Z,44.47
2018-08-03T12:30:49.702Z,44.57
2018-08-03T12:31:49.753Z,44.72
2018-08-03T12:32:49.792Z,44.65
2018-08-03T12:33:49.842Z,44.50
2018-08-03T12:34:49.893Z,44.52
2018-08-03T12:35:49.932Z,44.53
2018-08-03T12:36:49.983Z,44.68
2018-08-03T12:37:50.023Z,44.75
2018-08-03T12:38:50.076Z,44.86
2018-08-03T12:39:50.110Z,44.76
2018-08-03T12:40:50.166Z,44.68
2018-08-03T12:41:50.201Z,44.53
2018-08-03T12:42:50.251Z,44.37
2018-08-03T12:43:50.294Z,44.35
2018-08-03T12:44:50.340Z,44.26
2018-08-03T12:45:50.412Z,44.16
2018-08-03T12:46:50.431Z,44.13
2018-08-03T12:47:50.468Z,44.14
2018-08-03T12:48:50.533Z,44.14
2018-08-03T12:49:50.560Z,44.23
2018-08-03T12:50:50.611Z,44.19
2018-08-03T12:51:50.647Z,44.19
2018-08-03T12:52:50.702Z,44.22